CheckWX is a tool to help pilots better visualize weather data.  It is not intended as a substitute for an official pre-flight weather briefing.

08:14:02 UTC

KMSY TAF
Louis Armstrong New Orleans International Airport
New Orleans, Louisiana, USA
KMSY 250520Z 2506/2612 20006KT P6SM -DZ VCSH FEW018 BKN024 OVC035 FM250800 28006KT P6SM OVC025 FM251000 31005KT P6SM OVC025 FM251200 36002KT P6SM OVC100

Feb-25@
06:00 UTC

Feb-25 @ 06:00 UTC

Feb-25@
08:00 UTC

Feb-25 @ 08:00 UTC

KMSY 250520Z 2506/2612 20006KT P6SM -DZ VCSH FEW018 BKN024 OVC035

Expired

Wind
  • 200° at 6 KTS
Conditions
Light Drizzle
Cloud Levels
  • Few at 1,800' AGL
  • Broken at 2,400' AGL
  • Overcast at 3,500' AGL

Feb-25@
08:00 UTC

Feb-25 @ 08:00 UTC

Feb-25@
10:00 UTC

Feb-25 @ 10:00 UTC

FM250800 28006KT P6SM OVC025

From

From Standard forecast or significant change

Wind
  • 280° at 6 KTS
Cloud Levels
  • Overcast at 2,500' AGL

Feb-25@
10:00 UTC

Feb-25 @ 10:00 UTC

Feb-25@
12:00 UTC

Feb-25 @ 12:00 UTC

FM251000 31005KT P6SM OVC025

From

From Standard forecast or significant change

Wind
  • 310° at 5 KTS
Cloud Levels
  • Overcast at 2,500' AGL

Feb-25@
12:00 UTC

Feb-25 @ 12:00 UTC

Feb-26@
12:00 UTC

Feb-26 @ 12:00 UTC

FM251200 36002KT P6SM OVC100

From

From Standard forecast or significant change

Wind
  • 360° at 2 KTS
Cloud Levels
  • Overcast at 10,000' AGL